sensor_id;sensor_type;location;lat;lon;timestamp;pressure;altitude;pressure_sealevel;temperature;humidity
24752;BME280;27246;52.376;4.628;2022-11-30T00:03:39;102195.78;;;7.86;100.00
24752;BME280;27246;52.376;4.628;2022-11-30T00:08:41;102192.91;;;7.88;100.00
24752;BME280;27246;52.376;4.628;2022-11-30T00:13:43;102203.91;;;7.88;100.00
24752;BME280;27246;52.376;4.628;2022-11-30T00:18:45;102201.69;;;7.81;100.00
24752;BME280;27246;52.376;4.628;2022-11-30T00:23:47;102193.78;;;7.88;100.00
24752;BME280;27246;52.376;4.628;2022-11-30T00:28:49;102195.41;;;7.91;100.00
24752;BME280;27246;52.376;4.628;2022-11-30T00:33:51;102197.88;;;7.94;100.00
24752;BME280;27246;52.376;4.628;2022-11-30T00:38:52;102192.91;;;7.88;100.00
24752;BME280;27246;52.376;4.628;2022-11-30T00:43:54;102197.13;;;7.92;100.00
24752;BME280;27246;52.376;4.628;2022-11-30T00:48:56;102192.66;;;7.91;100.00
24752;BME280;27246;52.376;4.628;2022-11-30T00:53:58;102190.91;;;7.90;100.00
24752;BME280;27246;52.376;4.628;2022-11-30T00:58:59;102194.06;;;7.85;100.00
24752;BME280;27246;52.376;4.628;2022-11-30T01:04:03;102189.19;;;7.89;100.00
24752;BME280;27246;52.376;4.628;2022-11-30T01:09:05;102183.22;;;7.84;100.00
24752;BME280;27246;52.376;4.628;2022-11-30T01:14:06;102185.56;;;7.88;100.00
24752;BME280;27246;52.376;4.628;2022-11-30T01:19:08;102198.41;;;7.88;100.00
24752;BME280;27246;52.376;4.628;2022-11-30T01:24:10;102189.56;;;7.84;100.00
24752;BME280;27246;52.376;4.628;2022-11-30T01:29:12;102202.69;;;7.80;100.00
24752;BME280;27246;52.376;4.628;2022-11-30T01:34:13;102197.47;;;7.77;100.00
24752;BME280;27246;52.376;4.628;2022-11-30T01:39:15;102197.34;;;7.79;100.00
24752;BME280;27246;52.376;4.628;2022-11-30T01:49:45;102197.47;;;7.77;100.00
24752;BME280;27246;52.376;4.628;2022-11-30T01:54:54;102189.91;;;7.70;100.00
24752;BME280;27246;52.376;4.628;2022-11-30T02:00:00;102205.16;;;7.63;100.00
24752;BME280;27246;52.376;4.628;2022-11-30T02:05:02;102204.63;;;7.69;100.00
24752;BME280;27246;52.376;4.628;2022-11-30T02:10:04;102205.91;;;7.65;100.00
24752;BME280;27246;52.376;4.628;2022-11-30T02:15:11;102200.34;;;7.55;100.00
24752;BME280;27246;52.376;4.628;2022-11-30T02:20:31;102209.00;;;7.60;100.00
24752;BME280;27246;52.376;4.628;2022-11-30T02:30:48;102212.03;;;7.57;100.00
24752;BME280;27246;52.376;4.628;2022-11-30T02:35:54;102203.06;;;7.55;100.00
24752;BME280;27246;52.376;4.628;2022-11-30T02:40:56;102210.28;;;7.56;100.00
24752;BME280;27246;52.376;4.628;2022-11-30T02:46:13;102216.03;;;7.53;100.00
24752;BME280;27246;52.376;4.628;2022-11-30T02:51:19;102217.25;;;7.60;100.00
24752;BME280;27246;52.376;4.628;2022-11-30T02:56:23;102215.53;;;7.59;100.00
24752;BME280;27246;52.376;4.628;2022-11-30T03:01:25;102218.72;;;7.64;100.00
24752;BME280;27246;52.376;4.628;2022-11-30T03:06:27;102210.03;;;7.59;100.00
24752;BME280;27246;52.376;4.628;2022-11-30T03:11:28;102217.97;;;7.62;100.00
24752;BME280;27246;52.376;4.628;2022-11-30T03:16:31;102225.63;;;7.58;100.00
24752;BME280;27246;52.376;4.628;2022-11-30T03:21:34;102226.22;;;7.62;100.00
24752;BME280;27246;52.376;4.628;2022-11-30T03:26:35;102219.88;;;7.61;100.00
24752;BME280;27246;52.376;4.628;2022-11-30T03:31:37;102218.72;;;7.64;100.00
24752;BME280;27246;52.376;4.628;2022-11-30T03:36:39;102227.97;;;7.63;100.00
24752;BME280;27246;52.376;4.628;2022-11-30T03:41:40;102215.41;;;7.60;100.00
24752;BME280;27246;52.376;4.628;2022-11-30T03:46:42;102223.75;;;7.59;100.00
24752;BME280;27246;52.376;4.628;2022-11-30T03:51:44;102221.00;;;7.59;100.00
24752;BME280;27246;52.376;4.628;2022-11-30T03:56:45;102234.97;;;7.56;100.00
24752;BME280;27246;52.376;4.628;2022-11-30T04:01:47;102224.59;;;7.59;100.00
24752;BME280;27246;52.376;4.628;2022-11-30T04:06:49;102223.25;;;7.54;100.00
24752;BME280;27246;52.376;4.628;2022-11-30T04:11:51;102232.13;;;7.46;100.00
24752;BME280;27246;52.376;4.628;2022-11-30T04:16:52;102235.69;;;7.58;100.00
24752;BME280;27246;52.376;4.628;2022-11-30T04:21:54;102238.31;;;7.59;100.00
24752;BME280;27246;52.376;4.628;2022-11-30T04:26:56;102238.06;;;7.63;100.00
24752;BME280;27246;52.376;4.628;2022-11-30T04:31:57;102249.16;;;7.61;100.00
24752;BME280;27246;52.376;4.628;2022-11-30T04:36:59;102246.53;;;7.59;100.00
24752;BME280;27246;52.376;4.628;2022-11-30T04:42:01;102251.03;;;7.60;100.00
24752;BME280;27246;52.376;4.628;2022-11-30T04:47:03;102252.16;;;7.58;100.00
24752;BME280;27246;52.376;4.628;2022-11-30T04:52:05;102254.16;;;7.56;100.00
24752;BME280;27246;52.376;4.628;2022-11-30T04:57:06;102253.28;;;7.55;100.00
24752;BME280;27246;52.376;4.628;2022-11-30T05:02:08;102257.50;;;7.59;100.00
24752;BME280;27246;52.376;4.628;2022-11-30T05:07:10;102260.38;;;7.58;100.00
24752;BME280;27246;52.376;4.628;2022-11-30T05:12:12;102264.13;;;7.57;100.00
24752;BME280;27246;52.376;4.628;2022-11-30T05:17:13;102263.63;;;7.63;100.00
24752;BME280;27246;52.376;4.628;2022-11-30T05:22:15;102281.06;;;7.62;100.00
24752;BME280;27246;52.376;4.628;2022-11-30T05:27:17;102276.72;;;7.59;100.00
24752;BME280;27246;52.376;4.628;2022-11-30T05:32:23;102271.56;;;7.66;100.00
24752;BME280;27246;52.376;4.628;2022-11-30T05:37:24;102277.34;;;7.63;100.00
24752;BME280;27246;52.376;4.628;2022-11-30T05:42:26;102277.56;;;7.60;100.00
24752;BME280;27246;52.376;4.628;2022-11-30T05:47:28;102282.81;;;7.63;100.00
24752;BME280;27246;52.376;4.628;2022-11-30T05:52:30;102279.56;;;7.58;100.00
24752;BME280;27246;52.376;4.628;2022-11-30T05:57:35;102289.56;;;7.59;100.00
24752;BME280;27246;52.376;4.628;2022-11-30T06:02:38;102300.03;;;7.54;100.00
24752;BME280;27246;52.376;4.628;2022-11-30T06:07:40;102292.53;;;7.56;100.00
24752;BME280;27246;52.376;4.628;2022-11-30T06:12:42;102297.03;;;7.57;100.00
24752;BME280;27246;52.376;4.628;2022-11-30T06:17:43;102301.78;;;7.55;100.00
24752;BME280;27246;52.376;4.628;2022-11-30T06:22:45;102296.03;;;7.58;100.00
24752;BME280;27246;52.376;4.628;2022-11-30T06:27:47;102293.81;;;7.40;100.00
24752;BME280;27246;52.376;4.628;2022-11-30T06:32:51;102293.09;;;7.38;100.00
24752;BME280;27246;52.376;4.628;2022-11-30T06:37:52;102287.59;;;7.38;100.00
24752;BME280;27246;52.376;4.628;2022-11-30T06:42:55;102295.81;;;7.38;100.00
24752;BME280;27246;52.376;4.628;2022-11-30T06:47:57;102294.84;;;7.28;100.00
24752;BME280;27246;52.376;4.628;2022-11-30T06:52:59;102300.09;;;7.43;100.00
24752;BME280;27246;52.376;4.628;2022-11-30T06:58:04;102305.03;;;7.37;100.00
24752;BME280;27246;52.376;4.628;2022-11-30T07:03:06;102310.28;;;7.40;100.00
24752;BME280;27246;52.376;4.628;2022-11-30T07:08:09;102309.78;;;7.47;100.00
24752;BME280;27246;52.376;4.628;2022-11-30T07:13:12;102321.50;;;7.49;100.00
24752;BME280;27246;52.376;4.628;2022-11-30T07:18:14;102328.59;;;7.51;100.00
24752;BME280;27246;52.376;4.628;2022-11-30T07:23:16;102328.34;;;7.54;100.00
24752;BME280;27246;52.376;4.628;2022-11-30T07:28:41;102338.41;;;7.54;100.00
24752;BME280;27246;52.376;4.628;2022-11-30T07:33:43;102330.59;;;7.49;100.00
24752;BME280;27246;52.376;4.628;2022-11-30T07:38:46;102342.81;;;7.45;100.00
24752;BME280;27246;52.376;4.628;2022-11-30T07:43:47;102345.44;;;7.47;100.00
24752;BME280;27246;52.376;4.628;2022-11-30T07:48:49;102350.75;;;7.48;100.00
24752;BME280;27246;52.376;4.628;2022-11-30T07:53:51;102356.75;;;7.53;100.00
24752;BME280;27246;52.376;4.628;2022-11-30T07:58:55;102368.59;;;7.54;100.00
24752;BME280;27246;52.376;4.628;2022-11-30T08:03:57;102370.06;;;7.58;100.00
24752;BME280;27246;52.376;4.628;2022-11-30T08:09:01;102357.66;;;7.43;100.00
24752;BME280;27246;52.376;4.628;2022-11-30T08:14:04;102360.97;;;7.57;100.00
24752;BME280;27246;52.376;4.628;2022-11-30T08:19:06;102363.34;;;7.62;100.00
24752;BME280;27246;52.376;4.628;2022-11-30T08:24:10;102374.44;;;7.60;100.00
24752;BME280;27246;52.376;4.628;2022-11-30T08:29:12;102379.31;;;7.57;100.00
24752;BME280;27246;52.376;4.628;2022-11-30T08:34:14;102389.03;;;7.61;100.00
24752;BME280;27246;52.376;4.628;2022-11-30T08:39:15;102389.16;;;7.48;100.00
24752;BME280;27246;52.376;4.628;2022-11-30T08:44:17;102394.91;;;7.45;100.00
24752;BME280;27246;52.376;4.628;2022-11-30T08:49:19;102399.50;;;7.56;100.00
24752;BME280;27246;52.376;4.628;2022-11-30T08:54:42;102413.09;;;7.46;100.00
24752;BME280;27246;52.376;4.628;2022-11-30T08:59:47;102412.97;;;7.59;100.00
24752;BME280;27246;52.376;4.628;2022-11-30T09:04:48;102421.66;;;7.64;100.00
24752;BME280;27246;52.376;4.628;2022-11-30T09:09:52;102429.53;;;7.69;100.00
24752;BME280;27246;52.376;4.628;2022-11-30T09:14:53;102426.41;;;7.62;100.00
24752;BME280;27246;52.376;4.628;2022-11-30T09:19:59;102431.78;;;7.52;100.00
24752;BME280;27246;52.376;4.628;2022-11-30T09:25:01;102434.28;;;7.55;100.00
24752;BME280;27246;52.376;4.628;2022-11-30T09:30:03;102444.38;;;7.55;100.00
24752;BME280;27246;52.376;4.628;2022-11-30T09:35:05;102448.09;;;7.54;100.00
24752;BME280;27246;52.376;4.628;2022-11-30T09:40:13;102452.09;;;7.50;100.00
24752;BME280;27246;52.376;4.628;2022-11-30T09:45:22;102449.75;;;7.45;100.00
24752;BME280;27246;52.376;4.628;2022-11-30T09:50:28;102454.34;;;7.56;100.00
24752;BME280;27246;52.376;4.628;2022-11-30T09:55:36;102452.84;;;7.52;100.00
24752;BME280;27246;52.376;4.628;2022-11-30T10:00:39;102449.59;;;7.58;100.00
24752;BME280;27246;52.376;4.628;2022-11-30T10:05:47;102447.00;;;7.45;100.00
24752;BME280;27246;52.376;4.628;2022-11-30T10:26:33;102442.59;;;7.88;100.00
24752;BME280;27246;52.376;4.628;2022-11-30T10:31:37;102437.59;;;7.93;100.00
24752;BME280;27246;52.376;4.628;2022-11-30T10:36:43;102435.22;;;7.88;100.00
24752;BME280;27246;52.376;4.628;2022-11-30T10:41:49;102430.13;;;7.95;100.00
24752;BME280;27246;52.376;4.628;2022-11-30T10:47:09;102427.84;;;8.00;100.00
24752;BME280;27246;52.376;4.628;2022-11-30T10:52:19;102427.06;;;8.09;100.00
24752;BME280;27246;52.376;4.628;2022-11-30T10:57:30;102416.97;;;8.10;100.00
24752;BME280;27246;52.376;4.628;2022-11-30T11:08:01;102416.25;;;8.29;100.00
24752;BME280;27246;52.376;4.628;2022-11-30T11:13:18;102419.50;;;8.34;100.00
24752;BME280;27246;52.376;4.628;2022-11-30T11:18:27;102412.66;;;8.28;100.00
24752;BME280;27246;52.376;4.628;2022-11-30T11:23:35;102426.03;;;8.21;100.00
24752;BME280;27246;52.376;4.628;2022-11-30T11:28:43;102429.75;;;8.20;97.83
24752;BME280;27246;52.376;4.628;2022-11-30T11:33:52;102428.50;;;8.25;97.42
24752;BME280;27246;52.376;4.628;2022-11-30T11:38:55;102424.44;;;8.19;95.06
24752;BME280;27246;52.376;4.628;2022-11-30T11:44:24;102430.66;;;8.21;95.13
24752;BME280;27246;52.376;4.628;2022-11-30T11:49:28;102427.75;;;8.23;94.63
24752;BME280;27246;52.376;4.628;2022-11-30T11:59:56;102421.38;;;8.33;94.28
24752;BME280;27246;52.376;4.628;2022-11-30T12:05:16;102423.38;;;8.31;95.40
24752;BME280;27246;52.376;4.628;2022-11-30T12:10:33;102424.16;;;8.22;94.26
24752;BME280;27246;52.376;4.628;2022-11-30T12:21:08;102426.88;;;8.33;93.50
24752;BME280;27246;52.376;4.628;2022-11-30T12:31:23;102427.66;;;8.45;92.96
24752;BME280;27246;52.376;4.628;2022-11-30T12:36:38;102431.63;;;8.52;91.18
24752;BME280;27246;52.376;4.628;2022-11-30T12:41:53;102424.16;;;8.43;90.04
24752;BME280;27246;52.376;4.628;2022-11-30T12:58:11;102436.63;;;8.47;93.36
24752;BME280;27246;52.376;4.628;2022-11-30T13:03:29;102437.00;;;8.54;94.15
24752;BME280;27246;52.376;4.628;2022-11-30T13:13:58;102441.88;;;8.50;93.07
24752;BME280;27246;52.376;4.628;2022-11-30T13:24:40;102452.22;;;8.58;93.67
24752;BME280;27246;52.376;4.628;2022-11-30T13:29:58;102451.06;;;8.60;93.93
24752;BME280;27246;52.376;4.628;2022-11-30T13:40:28;102452.28;;;8.68;92.93
24752;BME280;27246;52.376;4.628;2022-11-30T13:45:32;102445.16;;;8.65;92.84
24752;BME280;27246;52.376;4.628;2022-11-30T13:50:38;102455.78;;;8.70;93.29
24752;BME280;27246;52.376;4.628;2022-11-30T14:11:44;102464.75;;;8.72;95.53
24752;BME280;27246;52.376;4.628;2022-11-30T14:16:47;102463.75;;;8.73;95.85
24752;BME280;27246;52.376;4.628;2022-11-30T14:21:49;102464.22;;;8.78;96.10
24752;BME280;27246;52.376;4.628;2022-11-30T14:26:51;102458.56;;;8.79;95.12
24752;BME280;27246;52.376;4.628;2022-11-30T14:32:00;102462.53;;;8.66;95.64
24752;BME280;27246;52.376;4.628;2022-11-30T14:37:18;102473.13;;;8.70;96.69
24752;BME280;27246;52.376;4.628;2022-11-30T14:42:26;102475.56;;;8.52;96.16
24752;BME280;27246;52.376;4.628;2022-11-30T14:47:34;102472.06;;;8.61;96.73
24752;BME280;27246;52.376;4.628;2022-11-30T14:53:00;102473.69;;;8.53;97.40
24752;BME280;27246;52.376;4.628;2022-11-30T14:58:24;102470.09;;;8.52;98.38
24752;BME280;27246;52.376;4.628;2022-11-30T15:03:32;102467.59;;;8.49;98.90
24752;BME280;27246;52.376;4.628;2022-11-30T15:08:44;102472.41;;;8.36;99.38
24752;BME280;27246;52.376;4.628;2022-11-30T15:13:56;102471.13;;;8.40;99.38
24752;BME280;27246;52.376;4.628;2022-11-30T15:24:29;102476.19;;;8.24;98.89
24752;BME280;27246;52.376;4.628;2022-11-30T15:29:36;102479.44;;;8.17;100.00
24752;BME280;27246;52.376;4.628;2022-11-30T15:34:46;102506.03;;;8.06;99.37
24752;BME280;27246;52.376;4.628;2022-11-30T15:39:55;102505.53;;;8.00;100.00
24752;BME280;27246;52.376;4.628;2022-11-30T15:55:42;102520.78;;;7.93;97.60
24752;BME280;27246;52.376;4.628;2022-11-30T16:01:07;102523.66;;;7.92;96.53
24752;BME280;27246;52.376;4.628;2022-11-30T16:06:16;102524.50;;;7.92;95.55
24752;BME280;27246;52.376;4.628;2022-11-30T16:11:20;102535.88;;;7.88;95.54
24752;BME280;27246;52.376;4.628;2022-11-30T16:16:26;102535.13;;;7.86;95.13
24752;BME280;27246;52.376;4.628;2022-11-30T16:21:29;102539.97;;;7.82;95.16
24752;BME280;27246;52.376;4.628;2022-11-30T16:26:30;102542.88;;;7.69;95.19
24752;BME280;27246;52.376;4.628;2022-11-30T16:31:52;102543.34;;;7.63;95.27
24752;BME280;27246;52.376;4.628;2022-11-30T16:37:09;102546.09;;;7.63;95.82
24752;BME280;27246;52.376;4.628;2022-11-30T16:42:11;102552.06;;;7.68;96.07
24752;BME280;27246;52.376;4.628;2022-11-30T16:47:13;102558.06;;;7.51;95.97
24752;BME280;27246;52.376;4.628;2022-11-30T16:52:17;102565.28;;;7.52;95.95
24752;BME280;27246;52.376;4.628;2022-11-30T16:57:19;102571.50;;;7.54;96.40
24752;BME280;27246;52.376;4.628;2022-11-30T17:02:21;102578.88;;;7.53;95.63
24752;BME280;27246;52.376;4.628;2022-11-30T17:07:24;102587.69;;;7.46;95.96
24752;BME280;27246;52.376;4.628;2022-11-30T17:12:25;102586.94;;;7.44;95.87
24752;BME280;27246;52.376;4.628;2022-11-30T17:17:27;102597.16;;;7.41;95.96
24752;BME280;27246;52.376;4.628;2022-11-30T17:22:29;102598.03;;;7.42;94.90
24752;BME280;27246;52.376;4.628;2022-11-30T17:27:31;102603.09;;;7.24;94.43
24752;BME280;27246;52.376;4.628;2022-11-30T17:32:33;102608.56;;;7.24;94.42
24752;BME280;27246;52.376;4.628;2022-11-30T17:37:34;102609.53;;;7.23;93.71
24752;BME280;27246;52.376;4.628;2022-11-30T17:42:36;102611.53;;;7.21;93.33
24752;BME280;27246;52.376;4.628;2022-11-30T17:47:38;102614.28;;;7.21;92.96
24752;BME280;27246;52.376;4.628;2022-11-30T17:52:39;102612.66;;;7.18;92.08
24752;BME280;27246;52.376;4.628;2022-11-30T17:57:41;102615.25;;;7.20;92.12
24752;BME280;27246;52.376;4.628;2022-11-30T18:02:43;102613.75;;;7.16;91.88
24752;BME280;27246;52.376;4.628;2022-11-30T18:07:45;102614.84;;;7.13;91.86
24752;BME280;27246;52.376;4.628;2022-11-30T18:12:47;102614.34;;;7.08;91.80
24752;BME280;27246;52.376;4.628;2022-11-30T18:17:49;102629.16;;;7.06;91.72
24752;BME280;27246;52.376;4.628;2022-11-30T18:22:51;102628.38;;;7.04;92.04
24752;BME280;27246;52.376;4.628;2022-11-30T18:27:53;102634.59;;;6.94;91.84
24752;BME280;27246;52.376;4.628;2022-11-30T18:33:13;102641.28;;;6.90;92.27
24752;BME280;27246;52.376;4.628;2022-11-30T18:38:15;102636.03;;;6.87;91.74
24752;BME280;27246;52.376;4.628;2022-11-30T18:43:17;102646.81;;;6.77;92.77
24752;BME280;27246;52.376;4.628;2022-11-30T18:48:19;102649.53;;;6.77;92.77
24752;BME280;27246;52.376;4.628;2022-11-30T18:53:21;102655.63;;;6.70;92.21
24752;BME280;27246;52.376;4.628;2022-11-30T18:58:23;102650.91;;;6.72;92.79
24752;BME280;27246;52.376;4.628;2022-11-30T19:03:24;102656.91;;;6.77;92.60
24752;BME280;27246;52.376;4.628;2022-11-30T19:08:27;102658.56;;;6.67;92.82
24752;BME280;27246;52.376;4.628;2022-11-30T19:13:35;102661.91;;;6.83;93.51
24752;BME280;27246;52.376;4.628;2022-11-30T19:18:37;102663.91;;;6.81;92.47
24752;BME280;27246;52.376;4.628;2022-11-30T19:23:40;102657.66;;;6.79;92.64
24752;BME280;27246;52.376;4.628;2022-11-30T19:28:43;102659.16;;;6.83;92.96
24752;BME280;27246;52.376;4.628;2022-11-30T19:33:47;102661.69;;;6.86;92.23
24752;BME280;27246;52.376;4.628;2022-11-30T19:38:48;102668.50;;;6.80;92.51
24752;BME280;27246;52.376;4.628;2022-11-30T19:43:56;102671.81;;;6.73;92.74
24752;BME280;27246;52.376;4.628;2022-11-30T19:49:04;102681.66;;;6.75;93.21
24752;BME280;27246;52.376;4.628;2022-11-30T19:54:09;102684.53;;;6.74;92.68
24752;BME280;27246;52.376;4.628;2022-11-30T19:59:11;102693.25;;;6.79;92.77
24752;BME280;27246;52.376;4.628;2022-11-30T20:04:12;102688.66;;;6.79;92.95
24752;BME280;27246;52.376;4.628;2022-11-30T20:14:38;102697.19;;;6.88;92.49
24752;BME280;27246;52.376;4.628;2022-11-30T20:19:39;102703.53;;;6.88;92.86
24752;BME280;27246;52.376;4.628;2022-11-30T20:24:41;102695.31;;;6.88;93.39
24752;BME280;27246;52.376;4.628;2022-11-30T20:29:43;102700.81;;;6.88;93.09
24752;BME280;27246;52.376;4.628;2022-11-30T20:34:45;102709.69;;;6.79;93.30
24752;BME280;27246;52.376;4.628;2022-11-30T20:39:47;102710.75;;;6.89;93.70
24752;BME280;27246;52.376;4.628;2022-11-30T20:44:48;102701.13;;;6.84;93.57
24752;BME280;27246;52.376;4.628;2022-11-30T20:49:50;102698.53;;;6.82;93.32
24752;BME280;27246;52.376;4.628;2022-11-30T20:54:52;102707.16;;;6.89;93.62
24752;BME280;27246;52.376;4.628;2022-11-30T20:59:54;102709.03;;;6.88;93.21
24752;BME280;27246;52.376;4.628;2022-11-30T21:04:56;102702.28;;;6.68;92.94
24752;BME280;27246;52.376;4.628;2022-11-30T21:09:57;102696.69;;;6.70;93.17
24752;BME280;27246;52.376;4.628;2022-11-30T21:14:59;102695.59;;;6.72;93.25
24752;BME280;27246;52.376;4.628;2022-11-30T21:20:01;102696.41;;;6.61;92.79
24752;BME280;27246;52.376;4.628;2022-11-30T21:25:04;102692.44;;;6.66;93.41
24752;BME280;27246;52.376;4.628;2022-11-30T21:30:06;102684.34;;;6.51;93.04
24752;BME280;27246;52.376;4.628;2022-11-30T21:35:08;102676.47;;;6.47;93.80
24752;BME280;27246;52.376;4.628;2022-11-30T21:40:12;102690.81;;;6.50;94.47
24752;BME280;27246;52.376;4.628;2022-11-30T21:45:13;102691.47;;;6.54;93.91
24752;BME280;27246;52.376;4.628;2022-11-30T21:50:15;102693.31;;;6.53;94.09
24752;BME280;27246;52.376;4.628;2022-11-30T21:55:17;102705.38;;;6.51;94.35
24752;BME280;27246;52.376;4.628;2022-11-30T22:00:19;102710.75;;;6.52;94.31
24752;BME280;27246;52.376;4.628;2022-11-30T22:05:21;102706.69;;;6.45;94.23
24752;BME280;27246;52.376;4.628;2022-11-30T22:10:22;102713.84;;;6.35;94.45
24752;BME280;27246;52.376;4.628;2022-11-30T22:15:24;102705.63;;;6.35;94.29
24752;BME280;27246;52.376;4.628;2022-11-30T22:20:26;102695.69;;;6.34;94.55
24752;BME280;27246;52.376;4.628;2022-11-30T22:25:28;102701.16;;;6.34;94.13
24752;BME280;27246;52.376;4.628;2022-11-30T22:30:32;102699.53;;;6.31;94.40
24752;BME280;27246;52.376;4.628;2022-11-30T22:35:34;102706.72;;;6.32;94.25
24752;BME280;27246;52.376;4.628;2022-11-30T22:40:44;102711.69;;;6.27;94.31
24752;BME280;27246;52.376;4.628;2022-11-30T22:46:04;102709.34;;;6.21;94.16
24752;BME280;27246;52.376;4.628;2022-11-30T22:51:11;102713.97;;;6.20;94.55
24752;BME280;27246;52.376;4.628;2022-11-30T22:56:16;102717.03;;;6.16;94.55
24752;BME280;27246;52.376;4.628;2022-11-30T23:01:24;102721.63;;;6.15;94.56
24752;BME280;27246;52.376;4.628;2022-11-30T23:06:26;102721.19;;;6.09;94.69
24752;BME280;27246;52.376;4.628;2022-11-30T23:11:31;102722.06;;;6.09;94.23
24752;BME280;27246;52.376;4.628;2022-11-30T23:16:37;102729.72;;;6.04;94.50
24752;BME280;27246;52.376;4.628;2022-11-30T23:21:40;102733.13;;;5.95;94.54
24752;BME280;27246;52.376;4.628;2022-11-30T23:26:43;102731.34;;;5.94;94.20
24752;BME280;27246;52.376;4.628;2022-11-30T23:31:45;102731.78;;;5.88;94.06
24752;BME280;27246;52.376;4.628;2022-11-30T23:36:48;102736.59;;;5.84;93.81
24752;BME280;27246;52.376;4.628;2022-11-30T23:41:50;102738.66;;;5.80;94.12
24752;BME280;27246;52.376;4.628;2022-11-30T23:46:52;102733.00;;;5.84;93.93
24752;BME280;27246;52.376;4.628;2022-11-30T23:51:54;102735.19;;;5.91;94.22
24752;BME280;27246;52.376;4.628;2022-11-30T23:56:56;102727.84;;;5.92;94.47
